createdAt,value
2022-07-25T00:03:50.146Z,1014.45
2022-07-25T00:08:42.679Z,1014.42
2022-07-25T00:13:35.361Z,1014.34
2022-07-25T00:18:27.900Z,1014.27
2022-07-25T00:23:20.587Z,1014.21
2022-07-25T00:28:13.267Z,1014.21
2022-07-25T00:33:05.492Z,1014.16
2022-07-25T00:37:58.016Z,1014.17
2022-07-25T00:42:50.620Z,1014.12
2022-07-25T00:47:43.223Z,1014.1
2022-07-25T00:52:36.051Z,1014.05
2022-07-25T00:57:28.500Z,1014.03
2022-07-25T01:02:21.394Z,1014.06
2022-07-25T01:07:13.879Z,1014.06
2022-07-25T01:12:06.555Z,1014.02
2022-07-25T01:16:59.198Z,1014.02
2022-07-25T01:21:51.896Z,1014.04
2022-07-25T01:26:44.370Z,1013.99
2022-07-25T01:31:37.011Z,1013.99
2022-07-25T01:36:29.452Z,1013.96
2022-07-25T01:41:22.568Z,1013.91
2022-07-25T01:46:14.619Z,1013.86
2022-07-25T01:51:07.047Z,1013.81
2022-07-25T01:55:59.515Z,1013.79
2022-07-25T02:00:52.110Z,1013.79
2022-07-25T02:05:44.666Z,1013.72
2022-07-25T02:10:37.127Z,1013.66
2022-07-25T02:15:29.673Z,1013.64
2022-07-25T02:20:22.093Z,1013.63
2022-07-25T02:25:14.632Z,1013.6
2022-07-25T02:30:07.469Z,1013.6
2022-07-25T02:34:59.955Z,1013.59
2022-07-25T02:39:52.649Z,1013.48
2022-07-25T02:44:45.241Z,1013.51
2022-07-25T02:49:37.961Z,1013.46
2022-07-25T02:54:30.570Z,1013.39
2022-07-25T02:59:23.370Z,1013.4
2022-07-25T03:04:16.317Z,1013.41
2022-07-25T03:09:08.711Z,1013.31
2022-07-25T03:14:01.296Z,1013.27
2022-07-25T03:18:53.895Z,1013.29
2022-07-25T03:23:50.510Z,1013.26
2022-07-25T03:33:31.507Z,1013.12
2022-07-25T03:38:24.220Z,1013.04
2022-07-25T03:43:17.058Z,1012.99
2022-07-25T03:53:01.301Z,1013.04
2022-07-25T04:02:45.751Z,1013.01
2022-07-25T04:07:38.366Z,1012.99
2022-07-25T04:12:29.695Z,1013
2022-07-25T04:17:22.200Z,1013.06
2022-07-25T04:22:14.529Z,1013.07
2022-07-25T04:27:07.629Z,1012.94
2022-07-25T04:32:00.638Z,1012.92
2022-07-25T04:36:53.541Z,1012.94
2022-07-25T04:41:45.998Z,1012.86
2022-07-25T04:46:38.671Z,1012.88
2022-07-25T04:51:31.200Z,1012.86
2022-07-25T04:56:24.219Z,1012.82
2022-07-25T05:01:17.147Z,1012.75
2022-07-25T05:06:09.212Z,1012.69
2022-07-25T05:11:01.321Z,1012.6
2022-07-25T05:15:53.949Z,1012.58
2022-07-25T05:20:46.480Z,1012.53
2022-07-25T05:25:39.273Z,1012.49
2022-07-25T05:30:35.347Z,1012.48
2022-07-25T05:35:24.902Z,1012.42
2022-07-25T05:40:17.254Z,1012.39
2022-07-25T05:45:09.593Z,1012.37
2022-07-25T05:50:02.320Z,1012.37
2022-07-25T05:54:54.922Z,1012.36
2022-07-25T05:59:47.885Z,1012.34
2022-07-25T06:04:40.411Z,1012.29
2022-07-25T06:09:32.858Z,1012.31
2022-07-25T06:14:25.208Z,1012.21
2022-07-25T06:19:17.983Z,1012.17
2022-07-25T06:24:10.650Z,1012.12
2022-07-25T06:29:03.564Z,1012.06
2022-07-25T06:33:56.108Z,1011.98
2022-07-25T06:38:48.659Z,1011.98
2022-07-25T06:43:41.362Z,1011.94
2022-07-25T06:48:33.911Z,1011.86
2022-07-25T06:53:26.937Z,1011.74
2022-07-25T06:58:20.225Z,1011.71
2022-07-25T07:03:12.831Z,1011.63
2022-07-25T07:08:05.377Z,1011.61
2022-07-25T07:12:58.029Z,1011.57
2022-07-25T07:17:51.059Z,1011.51
2022-07-25T07:22:43.534Z,1011.51
2022-07-25T07:27:35.855Z,1011.42
2022-07-25T07:32:28.380Z,1011.33
2022-07-25T07:37:20.646Z,1011.23
2022-07-25T07:42:13.052Z,1011.17
2022-07-25T07:47:05.522Z,1011.12
2022-07-25T07:51:58.014Z,1011.05
2022-07-25T07:56:50.460Z,1010.94
2022-07-25T08:01:43.167Z,1010.87
2022-07-25T08:06:35.549Z,1010.85
2022-07-25T08:11:28.254Z,1010.78
2022-07-25T08:16:21.272Z,1010.69
2022-07-25T08:21:13.977Z,1010.6
2022-07-25T08:26:06.603Z,1010.6
2022-07-25T08:30:59.338Z,1010.6
2022-07-25T08:35:52.076Z,1010.57
2022-07-25T08:40:44.896Z,1010.55
2022-07-25T08:45:37.885Z,1010.59
2022-07-25T08:50:30.361Z,1010.45
2022-07-25T08:55:22.817Z,1010.45
2022-07-25T09:00:15.543Z,1010.33
2022-07-25T09:05:08.015Z,1010.25
2022-07-25T09:10:00.606Z,1010.1
2022-07-25T09:14:53.430Z,1009.99
2022-07-25T09:19:46.055Z,1010.09
2022-07-25T09:24:38.845Z,1009.97
2022-07-25T09:29:31.498Z,1009.96
2022-07-25T09:34:25.561Z,1009.89
2022-07-25T09:39:16.806Z,1009.82
2022-07-25T09:44:09.798Z,1009.67
2022-07-25T09:49:02.218Z,1009.58
2022-07-25T09:53:54.905Z,1009.58
2022-07-25T09:58:47.771Z,1009.43
2022-07-25T10:03:40.421Z,1009.43
2022-07-25T10:08:33.106Z,1009.4
2022-07-25T10:13:25.862Z,1009.31
2022-07-25T10:18:18.429Z,1009.35
2022-07-25T10:23:11.119Z,1009.14
2022-07-25T10:28:03.735Z,1009.05
2022-07-25T10:32:56.334Z,1008.95
2022-07-25T10:37:49.348Z,1009
2022-07-25T10:42:41.669Z,1008.87
2022-07-25T10:47:34.220Z,1008.86
2022-07-25T10:52:26.613Z,1008.81
2022-07-25T10:57:19.249Z,1008.7
2022-07-25T11:07:04.785Z,1008.68
2022-07-25T11:16:49.652Z,1008.56
2022-07-25T11:26:35.081Z,1008.48
2022-07-25T11:36:20.799Z,1008.26
2022-07-25T11:46:21.128Z,1008.09
2022-07-25T11:51:13.691Z,1008.01
2022-07-25T11:56:19.656Z,1007.77
2022-07-25T12:00:56.928Z,1007.69
2022-07-25T12:05:49.932Z,1007.56
2022-07-25T12:10:42.678Z,1007.59
2022-07-25T12:15:35.576Z,1007.54
2022-07-25T12:20:28.493Z,1007.46
2022-07-25T12:25:21.302Z,1007.39
2022-07-25T12:30:13.852Z,1007.24
2022-07-25T12:35:06.440Z,1007.31
2022-07-25T12:39:59.067Z,1007.09
2022-07-25T12:44:51.873Z,1007.03
2022-07-25T12:49:44.619Z,1007.02
2022-07-25T12:54:37.158Z,1006.97
2022-07-25T12:59:30.103Z,1006.82
2022-07-25T13:04:22.330Z,1006.85
2022-07-25T13:09:14.983Z,1006.87
2022-07-25T13:14:07.692Z,1006.87
2022-07-25T13:19:00.162Z,1006.81
2022-07-25T13:23:53.127Z,1006.77
2022-07-25T13:28:45.665Z,1006.69
2022-07-25T13:33:38.539Z,1006.7
2022-07-25T13:38:31.080Z,1006.67
2022-07-25T13:43:23.509Z,1006.67
2022-07-25T13:48:29.340Z,1006.69
2022-07-25T13:53:08.890Z,1006.72
2022-07-25T13:58:01.557Z,1006.7
2022-07-25T14:02:54.161Z,1006.73
2022-07-25T14:07:47.200Z,1006.68
2022-07-25T14:12:40.093Z,1006.56
2022-07-25T14:17:32.523Z,1006.41
2022-07-25T14:22:25.290Z,1006.32
2022-07-25T14:27:18.092Z,1006.29
2022-07-25T14:32:10.822Z,1006.28
2022-07-25T14:37:03.190Z,1006.28
2022-07-25T14:41:56.170Z,1006.3
2022-07-25T14:46:49.029Z,1006.27
2022-07-25T14:51:41.914Z,1006.23
2022-07-25T14:56:34.713Z,1006.12
2022-07-25T15:01:27.311Z,1006.16
2022-07-25T15:06:20.226Z,1006.15
2022-07-25T15:11:12.873Z,1006.11
2022-07-25T15:16:05.441Z,1006.08
2022-07-25T15:20:57.899Z,1006.08
2022-07-25T15:26:05.785Z,1005.96
2022-07-25T15:30:43.117Z,1005.99
2022-07-25T15:35:35.759Z,1006.07
2022-07-25T15:40:28.450Z,1006.07
2022-07-25T15:45:36.231Z,1006.24
2022-07-25T15:50:13.687Z,1006.29
2022-07-25T15:55:06.391Z,1006.84
2022-07-25T15:59:59.232Z,1006.96
2022-07-25T16:04:52.081Z,1007.21
2022-07-25T16:09:44.851Z,1006.98
2022-07-25T16:14:37.469Z,1006.99
2022-07-25T16:19:30.227Z,1007.12
2022-07-25T16:24:22.826Z,1007.08
2022-07-25T16:34:08.816Z,1007.12
2022-07-25T16:43:54.376Z,1007.26
2022-07-25T16:53:39.981Z,1007.26
2022-07-25T16:58:32.641Z,1007.29
2022-07-25T17:03:25.349Z,1007.36
2022-07-25T17:08:18.379Z,1007.24
2022-07-25T17:13:11.329Z,1007.25
2022-07-25T17:18:04.066Z,1007.09
2022-07-25T17:22:56.941Z,1007.04
2022-07-25T17:27:49.730Z,1007.01
2022-07-25T17:32:42.646Z,1006.86
2022-07-25T17:37:35.514Z,1006.73
2022-07-25T17:42:28.413Z,1006.79
2022-07-25T17:47:21.146Z,1006.79
2022-07-25T17:52:13.739Z,1006.7
2022-07-25T17:57:06.349Z,1006.67
2022-07-25T18:01:59.138Z,1006.79
2022-07-25T18:06:51.768Z,1006.81
2022-07-25T18:11:44.828Z,1007
2022-07-25T18:16:37.802Z,1007.06
2022-07-25T18:21:30.415Z,1007.12
2022-07-25T18:26:23.101Z,1007.19
2022-07-25T18:31:15.498Z,1007.37
2022-07-25T18:36:08.139Z,1007.59
2022-07-25T18:41:19.235Z,1007.67
2022-07-25T18:45:53.397Z,1007.57
2022-07-25T18:50:45.775Z,1007.57
2022-07-25T18:55:38.699Z,1007.57
2022-07-25T19:00:30.580Z,1007.62
2022-07-25T19:05:23.382Z,1007.55
2022-07-25T19:10:15.755Z,1007.6
2022-07-25T19:15:08.456Z,1007.44
2022-07-25T19:20:01.062Z,1007.3
2022-07-25T19:24:54.409Z,1007.47
2022-07-25T19:29:47.258Z,1007.58
2022-07-25T19:34:40.290Z,1007.62
2022-07-25T19:39:32.961Z,1007.58
2022-07-25T19:44:25.262Z,1007.63
2022-07-25T19:49:17.937Z,1007.68
2022-07-25T19:54:11.059Z,1007.75
2022-07-25T19:59:03.185Z,1007.86
2022-07-25T20:03:55.586Z,1007.98
2022-07-25T20:08:48.635Z,1008.03
2022-07-25T20:13:41.249Z,1008.07
2022-07-25T20:18:33.924Z,1008.31
2022-07-25T20:23:26.449Z,1008.52
2022-07-25T20:28:19.212Z,1008.75
2022-07-25T20:33:11.716Z,1008.83
2022-07-25T20:38:04.451Z,1008.98
2022-07-25T20:42:57.325Z,1009.18
2022-07-25T20:47:49.972Z,1009.17
2022-07-25T20:52:42.546Z,1009.24
2022-07-25T20:57:35.133Z,1009.31
2022-07-25T21:02:27.664Z,1009.44
2022-07-25T21:07:20.221Z,1009.6
2022-07-25T21:12:12.812Z,1009.57
2022-07-25T21:17:05.308Z,1009.69
2022-07-25T21:21:57.947Z,1009.82
2022-07-25T21:26:50.661Z,1009.87
2022-07-25T21:31:43.531Z,1009.98
2022-07-25T21:36:35.893Z,1010.01
2022-07-25T21:41:28.469Z,1010.2
2022-07-25T21:46:21.250Z,1010.28
2022-07-25T21:51:14.166Z,1010.27
2022-07-25T21:56:06.644Z,1010.41
2022-07-25T22:00:59.134Z,1010.52
2022-07-25T22:05:51.968Z,1010.6
2022-07-25T22:10:44.889Z,1010.62
2022-07-25T22:20:30.052Z,1010.71
2022-07-25T22:30:19.032Z,1010.76
2022-07-25T22:40:01.812Z,1010.99
2022-07-25T22:44:53.050Z,1011.05
2022-07-25T22:49:45.521Z,1011.1
2022-07-25T22:54:38.088Z,1011.15
2022-07-25T22:59:30.550Z,1011.25
2022-07-25T23:04:23.254Z,1011.36
2022-07-25T23:09:16.039Z,1011.4
2022-07-25T23:14:08.738Z,1011.3
2022-07-25T23:19:01.764Z,1011.37
2022-07-25T23:23:54.557Z,1011.45
2022-07-25T23:28:47.166Z,1011.53
2022-07-25T23:33:39.920Z,1011.59
2022-07-25T23:38:32.589Z,1011.62
2022-07-25T23:43:29.358Z,1011.55
2022-07-25T23:48:17.935Z,1011.54
2022-07-25T23:53:10.942Z,1011.57
2022-07-25T23:58:03.631Z,1011.56
